sensor_id;sensor_type;location;lat;lon;timestamp;P1;durP1;ratioP1;P2;durP2;ratioP2
61397;SDS011;47267;48.130;-2.040;2023-09-12T00:00:34;3.10;;;1.60;;
61397;SDS011;47267;48.130;-2.040;2023-09-12T00:03:00;2.05;;;1.58;;
61397;SDS011;47267;48.130;-2.040;2023-09-12T00:05:25;2.55;;;1.60;;
61397;SDS011;47267;48.130;-2.040;2023-09-12T00:07:51;2.42;;;1.50;;
61397;SDS011;47267;48.130;-2.040;2023-09-12T00:10:18;2.78;;;1.65;;
61397;SDS011;47267;48.130;-2.040;2023-09-12T00:12:44;2.22;;;1.50;;
61397;SDS011;47267;48.130;-2.040;2023-09-12T00:15:10;2.80;;;1.73;;
61397;SDS011;47267;48.130;-2.040;2023-09-12T00:17:36;2.38;;;1.73;;
61397;SDS011;47267;48.130;-2.040;2023-09-12T00:20:02;3.65;;;1.50;;
61397;SDS011;47267;48.130;-2.040;2023-09-12T00:22:29;3.00;;;1.55;;
61397;SDS011;47267;48.130;-2.040;2023-09-12T00:24:55;3.15;;;1.80;;
61397;SDS011;47267;48.130;-2.040;2023-09-12T00:27:20;3.17;;;1.55;;
61397;SDS011;47267;48.130;-2.040;2023-09-12T00:29:46;2.65;;;1.50;;
61397;SDS011;47267;48.130;-2.040;2023-09-12T00:32:11;2.15;;;1.40;;
61397;SDS011;47267;48.130;-2.040;2023-09-12T00:34:37;3.35;;;1.67;;
61397;SDS011;47267;48.130;-2.040;2023-09-12T00:37:03;2.58;;;1.73;;
61397;SDS011;47267;48.130;-2.040;2023-09-12T00:39:29;1.67;;;1.50;;
61397;SDS011;47267;48.130;-2.040;2023-09-12T00:41:55;2.33;;;1.25;;
61397;SDS011;47267;48.130;-2.040;2023-09-12T00:44:21;3.05;;;1.52;;
61397;SDS011;47267;48.130;-2.040;2023-09-12T00:46:46;1.42;;;1.23;;
61397;SDS011;47267;48.130;-2.040;2023-09-12T00:49:14;3.75;;;1.45;;
61397;SDS011;47267;48.130;-2.040;2023-09-12T00:51:42;2.20;;;1.75;;
61397;SDS011;47267;48.130;-2.040;2023-09-12T00:54:10;3.22;;;1.50;;
61397;SDS011;47267;48.130;-2.040;2023-09-12T00:56:36;2.65;;;1.70;;
61397;SDS011;47267;48.130;-2.040;2023-09-12T00:59:02;3.03;;;1.60;;
61397;SDS011;47267;48.130;-2.040;2023-09-12T01:01:29;2.13;;;1.42;;
61397;SDS011;47267;48.130;-2.040;2023-09-12T01:03:56;2.00;;;1.73;;
61397;SDS011;47267;48.130;-2.040;2023-09-12T01:06:23;3.53;;;1.55;;
61397;SDS011;47267;48.130;-2.040;2023-09-12T01:11:18;3.45;;;1.88;;
61397;SDS011;47267;48.130;-2.040;2023-09-12T01:13:46;2.72;;;1.58;;
61397;SDS011;47267;48.130;-2.040;2023-09-12T01:16:11;1.88;;;1.70;;
61397;SDS011;47267;48.130;-2.040;2023-09-12T01:18:37;1.90;;;1.50;;
61397;SDS011;47267;48.130;-2.040;2023-09-12T01:29:18;2.83;;;1.38;;
61397;SDS011;47267;48.130;-2.040;2023-09-12T01:31:46;2.47;;;1.50;;
61397;SDS011;47267;48.130;-2.040;2023-09-12T01:34:12;1.92;;;1.50;;
61397;SDS011;47267;48.130;-2.040;2023-09-12T01:36:39;2.50;;;1.30;;
61397;SDS011;47267;48.130;-2.040;2023-09-12T01:39:05;2.65;;;1.52;;
61397;SDS011;47267;48.130;-2.040;2023-09-12T01:41:31;3.13;;;1.58;;
61397;SDS011;47267;48.130;-2.040;2023-09-12T01:44:00;2.83;;;1.50;;
61397;SDS011;47267;48.130;-2.040;2023-09-12T01:46:28;1.90;;;1.33;;
61397;SDS011;47267;48.130;-2.040;2023-09-12T01:48:56;2.72;;;1.52;;
61397;SDS011;47267;48.130;-2.040;2023-09-12T01:51:23;2.22;;;1.60;;
61397;SDS011;47267;48.130;-2.040;2023-09-12T01:53:50;1.70;;;1.50;;
61397;SDS011;47267;48.130;-2.040;2023-09-12T01:56:17;2.65;;;1.70;;
61397;SDS011;47267;48.130;-2.040;2023-09-12T01:58:44;1.88;;;1.30;;
61397;SDS011;47267;48.130;-2.040;2023-09-12T02:01:10;2.28;;;1.60;;
61397;SDS011;47267;48.130;-2.040;2023-09-12T02:03:36;2.28;;;1.40;;
61397;SDS011;47267;48.130;-2.040;2023-09-12T02:06:02;1.92;;;1.63;;
61397;SDS011;47267;48.130;-2.040;2023-09-12T02:08:27;3.88;;;1.65;;
61397;SDS011;47267;48.130;-2.040;2023-09-12T02:10:53;2.10;;;1.58;;
61397;SDS011;47267;48.130;-2.040;2023-09-12T02:13:19;3.05;;;1.75;;
61397;SDS011;47267;48.130;-2.040;2023-09-12T02:15:45;2.47;;;1.63;;
61397;SDS011;47267;48.130;-2.040;2023-09-12T02:18:11;1.90;;;1.40;;
61397;SDS011;47267;48.130;-2.040;2023-09-12T02:20:40;3.17;;;1.75;;
61397;SDS011;47267;48.130;-2.040;2023-09-12T02:23:06;2.00;;;1.65;;
61397;SDS011;47267;48.130;-2.040;2023-09-12T02:25:32;2.15;;;1.70;;
61397;SDS011;47267;48.130;-2.040;2023-09-12T02:27:57;2.40;;;1.48;;
61397;SDS011;47267;48.130;-2.040;2023-09-12T02:30:23;3.67;;;1.88;;
61397;SDS011;47267;48.130;-2.040;2023-09-12T02:32:49;2.97;;;1.63;;
61397;SDS011;47267;48.130;-2.040;2023-09-12T02:35:14;2.70;;;1.48;;
61397;SDS011;47267;48.130;-2.040;2023-09-12T02:37:40;2.30;;;1.50;;
61397;SDS011;47267;48.130;-2.040;2023-09-12T02:40:06;3.17;;;1.67;;
61397;SDS011;47267;48.130;-2.040;2023-09-12T02:42:32;2.97;;;1.67;;
61397;SDS011;47267;48.130;-2.040;2023-09-12T02:44:58;2.20;;;1.70;;
61397;SDS011;47267;48.130;-2.040;2023-09-12T02:47:24;2.72;;;1.60;;
61397;SDS011;47267;48.130;-2.040;2023-09-12T02:49:49;2.78;;;1.63;;
61397;SDS011;47267;48.130;-2.040;2023-09-12T02:52:15;2.42;;;1.60;;
61397;SDS011;47267;48.130;-2.040;2023-09-12T02:54:41;2.00;;;1.52;;
61397;SDS011;47267;48.130;-2.040;2023-09-12T02:57:06;2.20;;;1.50;;
61397;SDS011;47267;48.130;-2.040;2023-09-12T02:59:32;3.83;;;2.40;;
61397;SDS011;47267;48.130;-2.040;2023-09-12T03:01:57;2.45;;;1.60;;
61397;SDS011;47267;48.130;-2.040;2023-09-12T03:04:25;1.95;;;1.40;;
61397;SDS011;47267;48.130;-2.040;2023-09-12T03:06:53;2.42;;;1.40;;
61397;SDS011;47267;48.130;-2.040;2023-09-12T03:09:18;1.98;;;1.73;;
61397;SDS011;47267;48.130;-2.040;2023-09-12T03:11:44;1.95;;;1.65;;
61397;SDS011;47267;48.130;-2.040;2023-09-12T03:14:10;2.30;;;1.50;;
61397;SDS011;47267;48.130;-2.040;2023-09-12T03:16:36;2.40;;;1.60;;
61397;SDS011;47267;48.130;-2.040;2023-09-12T03:19:02;4.35;;;1.88;;
61397;SDS011;47267;48.130;-2.040;2023-09-12T03:21:28;2.47;;;1.88;;
61397;SDS011;47267;48.130;-2.040;2023-09-12T03:23:54;2.55;;;1.60;;
61397;SDS011;47267;48.130;-2.040;2023-09-12T03:26:19;1.85;;;1.60;;
61397;SDS011;47267;48.130;-2.040;2023-09-12T03:28:45;2.15;;;1.60;;
61397;SDS011;47267;48.130;-2.040;2023-09-12T03:31:13;4.80;;;1.80;;
61397;SDS011;47267;48.130;-2.040;2023-09-12T03:33:40;3.58;;;1.90;;
61397;SDS011;47267;48.130;-2.040;2023-09-12T03:36:06;3.45;;;2.05;;
61397;SDS011;47267;48.130;-2.040;2023-09-12T03:38:33;2.13;;;1.40;;
61397;SDS011;47267;48.130;-2.040;2023-09-12T03:40:59;2.97;;;1.80;;
61397;SDS011;47267;48.130;-2.040;2023-09-12T03:43:25;2.10;;;1.65;;
61397;SDS011;47267;48.130;-2.040;2023-09-12T03:45:50;2.80;;;1.80;;
61397;SDS011;47267;48.130;-2.040;2023-09-12T03:48:16;3.08;;;1.90;;
61397;SDS011;47267;48.130;-2.040;2023-09-12T03:50:42;3.17;;;2.08;;
61397;SDS011;47267;48.130;-2.040;2023-09-12T03:53:08;2.92;;;1.80;;
61397;SDS011;47267;48.130;-2.040;2023-09-12T03:55:34;3.08;;;2.10;;
61397;SDS011;47267;48.130;-2.040;2023-09-12T03:58:00;3.13;;;1.80;;
61397;SDS011;47267;48.130;-2.040;2023-09-12T04:00:25;4.07;;;2.10;;
61397;SDS011;47267;48.130;-2.040;2023-09-12T04:02:51;5.38;;;2.03;;
61397;SDS011;47267;48.130;-2.040;2023-09-12T04:05:16;2.42;;;2.00;;
61397;SDS011;47267;48.130;-2.040;2023-09-12T04:07:42;4.10;;;2.20;;
61397;SDS011;47267;48.130;-2.040;2023-09-12T04:10:08;4.13;;;1.95;;
61397;SDS011;47267;48.130;-2.040;2023-09-12T04:12:34;3.40;;;2.20;;
61397;SDS011;47267;48.130;-2.040;2023-09-12T04:14:59;2.72;;;2.10;;
61397;SDS011;47267;48.130;-2.040;2023-09-12T04:17:25;3.85;;;1.88;;
61397;SDS011;47267;48.130;-2.040;2023-09-12T04:19:51;2.58;;;1.90;;
61397;SDS011;47267;48.130;-2.040;2023-09-12T04:22:16;4.28;;;2.00;;
61397;SDS011;47267;48.130;-2.040;2023-09-12T04:24:42;4.13;;;2.30;;
61397;SDS011;47267;48.130;-2.040;2023-09-12T04:27:08;2.80;;;2.20;;
61397;SDS011;47267;48.130;-2.040;2023-09-12T04:29:34;3.97;;;2.30;;
61397;SDS011;47267;48.130;-2.040;2023-09-12T04:32:05;3.00;;;2.05;;
61397;SDS011;47267;48.130;-2.040;2023-09-12T04:34:31;3.03;;;1.75;;
61397;SDS011;47267;48.130;-2.040;2023-09-12T04:36:56;2.95;;;1.88;;
61397;SDS011;47267;48.130;-2.040;2023-09-12T04:39:22;4.32;;;1.92;;
61397;SDS011;47267;48.130;-2.040;2023-09-12T04:41:48;3.28;;;2.05;;
61397;SDS011;47267;48.130;-2.040;2023-09-12T04:44:14;3.13;;;1.85;;
61397;SDS011;47267;48.130;-2.040;2023-09-12T04:46:40;3.97;;;2.00;;
61397;SDS011;47267;48.130;-2.040;2023-09-12T04:49:06;2.67;;;2.03;;
61397;SDS011;47267;48.130;-2.040;2023-09-12T04:51:31;3.80;;;1.90;;
61397;SDS011;47267;48.130;-2.040;2023-09-12T04:53:57;2.70;;;1.73;;
61397;SDS011;47267;48.130;-2.040;2023-09-12T04:56:22;3.42;;;2.05;;
61397;SDS011;47267;48.130;-2.040;2023-09-12T04:58:51;2.97;;;1.70;;
61397;SDS011;47267;48.130;-2.040;2023-09-12T05:01:16;3.08;;;2.10;;
61397;SDS011;47267;48.130;-2.040;2023-09-12T05:03:42;2.03;;;1.80;;
61397;SDS011;47267;48.130;-2.040;2023-09-12T05:06:09;3.38;;;2.10;;
61397;SDS011;47267;48.130;-2.040;2023-09-12T05:08:35;2.40;;;2.10;;
61397;SDS011;47267;48.130;-2.040;2023-09-12T05:11:01;3.22;;;1.90;;
61397;SDS011;47267;48.130;-2.040;2023-09-12T05:13:27;3.25;;;2.25;;
61397;SDS011;47267;48.130;-2.040;2023-09-12T05:15:53;2.58;;;2.15;;
61397;SDS011;47267;48.130;-2.040;2023-09-12T05:18:19;3.30;;;2.35;;
61397;SDS011;47267;48.130;-2.040;2023-09-12T05:20:44;3.42;;;2.35;;
61397;SDS011;47267;48.130;-2.040;2023-09-12T05:23:10;3.90;;;2.10;;
61397;SDS011;47267;48.130;-2.040;2023-09-12T05:25:36;2.92;;;2.28;;
61397;SDS011;47267;48.130;-2.040;2023-09-12T05:28:01;3.95;;;2.50;;
61397;SDS011;47267;48.130;-2.040;2023-09-12T05:30:28;4.35;;;2.42;;
61397;SDS011;47267;48.130;-2.040;2023-09-12T05:32:53;3.03;;;2.35;;
61397;SDS011;47267;48.130;-2.040;2023-09-12T05:35:19;2.92;;;2.55;;
61397;SDS011;47267;48.130;-2.040;2023-09-12T05:37:44;4.32;;;2.63;;
61397;SDS011;47267;48.130;-2.040;2023-09-12T05:40:10;2.80;;;2.40;;
61397;SDS011;47267;48.130;-2.040;2023-09-12T05:42:36;5.45;;;2.50;;
61397;SDS011;47267;48.130;-2.040;2023-09-12T05:45:01;2.35;;;2.15;;
61397;SDS011;47267;48.130;-2.040;2023-09-12T05:47:27;4.22;;;2.47;;
61397;SDS011;47267;48.130;-2.040;2023-09-12T05:49:53;3.88;;;2.53;;
61397;SDS011;47267;48.130;-2.040;2023-09-12T05:52:19;5.30;;;2.67;;
61397;SDS011;47267;48.130;-2.040;2023-09-12T05:54:44;4.20;;;2.22;;
61397;SDS011;47267;48.130;-2.040;2023-09-12T05:57:10;3.35;;;2.17;;
61397;SDS011;47267;48.130;-2.040;2023-09-12T05:59:37;3.80;;;2.38;;
61397;SDS011;47267;48.130;-2.040;2023-09-12T06:02:03;3.47;;;1.98;;
61397;SDS011;47267;48.130;-2.040;2023-09-12T06:04:31;3.50;;;2.17;;
61397;SDS011;47267;48.130;-2.040;2023-09-12T06:06:57;2.83;;;1.80;;
61397;SDS011;47267;48.130;-2.040;2023-09-12T06:09:22;4.68;;;1.95;;
61397;SDS011;47267;48.130;-2.040;2023-09-12T06:11:48;4.28;;;2.15;;
61397;SDS011;47267;48.130;-2.040;2023-09-12T06:14:14;3.45;;;1.95;;
61397;SDS011;47267;48.130;-2.040;2023-09-12T06:16:40;2.58;;;1.83;;
61397;SDS011;47267;48.130;-2.040;2023-09-12T06:19:05;2.88;;;2.10;;
61397;SDS011;47267;48.130;-2.040;2023-09-12T06:21:31;2.63;;;2.10;;
61397;SDS011;47267;48.130;-2.040;2023-09-12T06:24:10;3.70;;;2.40;;
61397;SDS011;47267;48.130;-2.040;2023-09-12T06:26:37;2.95;;;2.05;;
61397;SDS011;47267;48.130;-2.040;2023-09-12T06:29:03;3.47;;;1.70;;
61397;SDS011;47267;48.130;-2.040;2023-09-12T06:31:29;2.38;;;1.90;;
61397;SDS011;47267;48.130;-2.040;2023-09-12T06:33:55;3.17;;;2.20;;
61397;SDS011;47267;48.130;-2.040;2023-09-12T06:36:21;4.95;;;1.95;;
61397;SDS011;47267;48.130;-2.040;2023-09-12T06:38:49;2.17;;;1.70;;
61397;SDS011;47267;48.130;-2.040;2023-09-12T06:41:14;2.80;;;2.03;;
61397;SDS011;47267;48.130;-2.040;2023-09-12T06:43:40;3.80;;;2.00;;
61397;SDS011;47267;48.130;-2.040;2023-09-12T06:46:08;2.55;;;2.00;;
61397;SDS011;47267;48.130;-2.040;2023-09-12T06:48:33;3.42;;;2.03;;
61397;SDS011;47267;48.130;-2.040;2023-09-12T06:50:59;2.80;;;2.10;;
61397;SDS011;47267;48.130;-2.040;2023-09-12T06:53:25;3.55;;;2.00;;
61397;SDS011;47267;48.130;-2.040;2023-09-12T06:55:50;3.25;;;2.13;;
61397;SDS011;47267;48.130;-2.040;2023-09-12T06:58:16;2.83;;;1.83;;
61397;SDS011;47267;48.130;-2.040;2023-09-12T07:00:42;1.80;;;1.60;;
61397;SDS011;47267;48.130;-2.040;2023-09-12T07:03:07;3.03;;;1.92;;
61397;SDS011;47267;48.130;-2.040;2023-09-12T07:05:35;2.80;;;1.80;;
61397;SDS011;47267;48.130;-2.040;2023-09-12T07:08:03;3.70;;;2.33;;
61397;SDS011;47267;48.130;-2.040;2023-09-12T07:10:29;2.28;;;1.83;;
61397;SDS011;47267;48.130;-2.040;2023-09-12T07:12:55;2.38;;;1.88;;
61397;SDS011;47267;48.130;-2.040;2023-09-12T07:15:20;2.13;;;1.88;;
61397;SDS011;47267;48.130;-2.040;2023-09-12T07:17:46;3.50;;;1.77;;
61397;SDS011;47267;48.130;-2.040;2023-09-12T07:20:12;2.50;;;1.85;;
61397;SDS011;47267;48.130;-2.040;2023-09-12T07:22:38;2.72;;;2.28;;
61397;SDS011;47267;48.130;-2.040;2023-09-12T07:25:05;2.30;;;1.67;;
61397;SDS011;47267;48.130;-2.040;2023-09-12T07:27:32;2.95;;;1.95;;
61397;SDS011;47267;48.130;-2.040;2023-09-12T07:29:57;4.03;;;2.20;;
61397;SDS011;47267;48.130;-2.040;2023-09-12T07:32:23;3.88;;;2.47;;
61397;SDS011;47267;48.130;-2.040;2023-09-12T07:34:49;2.75;;;2.40;;
61397;SDS011;47267;48.130;-2.040;2023-09-12T07:37:15;2.60;;;1.88;;
61397;SDS011;47267;48.130;-2.040;2023-09-12T07:39:41;2.45;;;1.77;;
61397;SDS011;47267;48.130;-2.040;2023-09-12T07:42:06;2.10;;;1.63;;
61397;SDS011;47267;48.130;-2.040;2023-09-12T07:44:32;3.13;;;2.17;;
61397;SDS011;47267;48.130;-2.040;2023-09-12T07:46:57;2.78;;;2.13;;
61397;SDS011;47267;48.130;-2.040;2023-09-12T07:49:23;2.20;;;1.98;;
61397;SDS011;47267;48.130;-2.040;2023-09-12T07:51:51;2.25;;;1.67;;
61397;SDS011;47267;48.130;-2.040;2023-09-12T07:54:16;3.40;;;2.47;;
61397;SDS011;47267;48.130;-2.040;2023-09-12T07:56:43;2.22;;;1.70;;
61397;SDS011;47267;48.130;-2.040;2023-09-12T07:59:08;2.85;;;1.90;;
61397;SDS011;47267;48.130;-2.040;2023-09-12T08:01:36;3.10;;;2.00;;
61397;SDS011;47267;48.130;-2.040;2023-09-12T08:04:01;2.00;;;1.60;;
61397;SDS011;47267;48.130;-2.040;2023-09-12T08:06:27;2.13;;;1.42;;
61397;SDS011;47267;48.130;-2.040;2023-09-12T08:08:53;2.05;;;1.70;;
61397;SDS011;47267;48.130;-2.040;2023-09-12T08:11:19;3.00;;;1.50;;
61397;SDS011;47267;48.130;-2.040;2023-09-12T08:13:48;1.83;;;1.48;;
61397;SDS011;47267;48.130;-2.040;2023-09-12T08:16:14;2.67;;;1.98;;
61397;SDS011;47267;48.130;-2.040;2023-09-12T08:18:40;2.03;;;1.67;;
61397;SDS011;47267;48.130;-2.040;2023-09-12T08:21:06;3.05;;;1.77;;
61397;SDS011;47267;48.130;-2.040;2023-09-12T08:23:31;1.88;;;1.60;;
61397;SDS011;47267;48.130;-2.040;2023-09-12T08:25:57;2.58;;;1.90;;
61397;SDS011;47267;48.130;-2.040;2023-09-12T08:28:22;3.47;;;1.85;;
61397;SDS011;47267;48.130;-2.040;2023-09-12T08:30:48;3.00;;;1.63;;
61397;SDS011;47267;48.130;-2.040;2023-09-12T08:33:14;5.05;;;2.22;;
61397;SDS011;47267;48.130;-2.040;2023-09-12T08:35:40;2.33;;;2.10;;
61397;SDS011;47267;48.130;-2.040;2023-09-12T08:38:05;3.05;;;2.00;;
61397;SDS011;47267;48.130;-2.040;2023-09-12T08:40:34;3.00;;;1.83;;
61397;SDS011;47267;48.130;-2.040;2023-09-12T08:43:00;2.30;;;1.70;;
61397;SDS011;47267;48.130;-2.040;2023-09-12T08:45:28;2.50;;;2.30;;
61397;SDS011;47267;48.130;-2.040;2023-09-12T08:47:55;3.78;;;3.30;;
61397;SDS011;47267;48.130;-2.040;2023-09-12T08:50:24;3.42;;;2.33;;
61397;SDS011;47267;48.130;-2.040;2023-09-12T08:52:50;3.45;;;2.67;;
61397;SDS011;47267;48.130;-2.040;2023-09-12T08:55:16;3.47;;;2.17;;
61397;SDS011;47267;48.130;-2.040;2023-09-12T08:57:42;3.25;;;2.03;;
61397;SDS011;47267;48.130;-2.040;2023-09-12T09:00:09;4.85;;;2.70;;
61397;SDS011;47267;48.130;-2.040;2023-09-12T09:02:41;2.97;;;2.30;;
61397;SDS011;47267;48.130;-2.040;2023-09-12T09:05:09;2.95;;;2.13;;
61397;SDS011;47267;48.130;-2.040;2023-09-12T09:07:40;3.65;;;2.72;;
61397;SDS011;47267;48.130;-2.040;2023-09-12T09:10:08;4.07;;;3.35;;
61397;SDS011;47267;48.130;-2.040;2023-09-12T09:12:43;6.35;;;4.05;;
61397;SDS011;47267;48.130;-2.040;2023-09-12T09:15:26;3.75;;;2.92;;
61397;SDS011;47267;48.130;-2.040;2023-09-12T09:17:53;5.22;;;2.67;;
61397;SDS011;47267;48.130;-2.040;2023-09-12T09:20:30;3.58;;;2.97;;
61397;SDS011;47267;48.130;-2.040;2023-09-12T09:23:03;3.95;;;3.22;;
61397;SDS011;47267;48.130;-2.040;2023-09-12T09:25:36;5.63;;;3.78;;
61397;SDS011;47267;48.130;-2.040;2023-09-12T09:28:17;4.25;;;2.90;;
61397;SDS011;47267;48.130;-2.040;2023-09-12T09:30:50;2.95;;;2.50;;
61397;SDS011;47267;48.130;-2.040;2023-09-12T09:33:16;3.10;;;2.13;;
61397;SDS011;47267;48.130;-2.040;2023-09-12T09:35:43;2.60;;;2.20;;
61397;SDS011;47267;48.130;-2.040;2023-09-12T09:38:11;3.53;;;2.30;;
61397;SDS011;47267;48.130;-2.040;2023-09-12T09:40:41;2.88;;;2.00;;
61397;SDS011;47267;48.130;-2.040;2023-09-12T09:43:08;2.65;;;1.85;;
61397;SDS011;47267;48.130;-2.040;2023-09-12T09:45:41;3.38;;;1.95;;
61397;SDS011;47267;48.130;-2.040;2023-09-12T09:48:08;2.75;;;2.00;;
61397;SDS011;47267;48.130;-2.040;2023-09-12T09:50:34;2.97;;;1.65;;
61397;SDS011;47267;48.130;-2.040;2023-09-12T09:53:03;2.00;;;1.80;;
61397;SDS011;47267;48.130;-2.040;2023-09-12T09:55:33;2.07;;;1.70;;
61397;SDS011;47267;48.130;-2.040;2023-09-12T09:57:59;1.92;;;1.70;;
61397;SDS011;47267;48.130;-2.040;2023-09-12T10:00:25;2.65;;;2.13;;
61397;SDS011;47267;48.130;-2.040;2023-09-12T10:02:53;2.50;;;2.08;;
61397;SDS011;47267;48.130;-2.040;2023-09-12T10:05:21;3.65;;;1.85;;
61397;SDS011;47267;48.130;-2.040;2023-09-12T10:07:48;3.05;;;2.00;;
61397;SDS011;47267;48.130;-2.040;2023-09-12T10:10:18;4.10;;;2.33;;
61397;SDS011;47267;48.130;-2.040;2023-09-12T10:12:55;3.72;;;2.40;;
61397;SDS011;47267;48.130;-2.040;2023-09-12T10:15:22;3.03;;;2.20;;
61397;SDS011;47267;48.130;-2.040;2023-09-12T10:18:02;3.22;;;2.10;;
61397;SDS011;47267;48.130;-2.040;2023-09-12T10:20:37;3.75;;;2.13;;
61397;SDS011;47267;48.130;-2.040;2023-09-12T10:25:45;2.83;;;1.80;;
61397;SDS011;47267;48.130;-2.040;2023-09-12T10:28:13;2.28;;;1.70;;
61397;SDS011;47267;48.130;-2.040;2023-09-12T10:30:39;2.72;;;1.90;;
61397;SDS011;47267;48.130;-2.040;2023-09-12T10:33:06;3.35;;;2.25;;
61397;SDS011;47267;48.130;-2.040;2023-09-12T10:35:33;4.05;;;1.92;;
61397;SDS011;47267;48.130;-2.040;2023-09-12T10:38:00;3.03;;;1.92;;
61397;SDS011;47267;48.130;-2.040;2023-09-12T10:40:31;3.65;;;1.95;;
61397;SDS011;47267;48.130;-2.040;2023-09-12T10:42:58;3.22;;;1.70;;
61397;SDS011;47267;48.130;-2.040;2023-09-12T10:45:28;3.05;;;2.00;;
61397;SDS011;47267;48.130;-2.040;2023-09-12T10:47:56;4.35;;;2.00;;
61397;SDS011;47267;48.130;-2.040;2023-09-12T10:50:21;4.00;;;1.73;;
61397;SDS011;47267;48.130;-2.040;2023-09-12T10:52:47;3.47;;;1.70;;
61397;SDS011;47267;48.130;-2.040;2023-09-12T10:55:16;3.22;;;1.70;;
61397;SDS011;47267;48.130;-2.040;2023-09-12T10:58:04;4.90;;;1.77;;
61397;SDS011;47267;48.130;-2.040;2023-09-12T11:00:31;3.80;;;2.15;;
61397;SDS011;47267;48.130;-2.040;2023-09-12T11:02:58;4.22;;;1.90;;
61397;SDS011;47267;48.130;-2.040;2023-09-12T11:08:00;3.63;;;1.75;;
61397;SDS011;47267;48.130;-2.040;2023-09-12T11:10:29;3.28;;;2.00;;
61397;SDS011;47267;48.130;-2.040;2023-09-12T11:12:57;4.20;;;2.22;;
61397;SDS011;47267;48.130;-2.040;2023-09-12T11:15:23;4.75;;;2.03;;
61397;SDS011;47267;48.130;-2.040;2023-09-12T11:18:00;4.53;;;2.08;;
61397;SDS011;47267;48.130;-2.040;2023-09-12T11:20:49;3.70;;;2.10;;
61397;SDS011;47267;48.130;-2.040;2023-09-12T11:23:15;2.70;;;1.70;;
61397;SDS011;47267;48.130;-2.040;2023-09-12T11:25:41;2.63;;;1.58;;
61397;SDS011;47267;48.130;-2.040;2023-09-12T11:28:07;2.53;;;1.60;;
61397;SDS011;47267;48.130;-2.040;2023-09-12T11:30:33;5.13;;;1.88;;
61397;SDS011;47267;48.130;-2.040;2023-09-12T11:33:01;2.75;;;1.73;;
61397;SDS011;47267;48.130;-2.040;2023-09-12T11:35:29;2.77;;;1.70;;
61397;SDS011;47267;48.130;-2.040;2023-09-12T11:38:01;2.05;;;1.70;;
61397;SDS011;47267;48.130;-2.040;2023-09-12T11:43:00;4.25;;;1.42;;
61397;SDS011;47267;48.130;-2.040;2023-09-12T11:45:26;3.28;;;1.80;;
61397;SDS011;47267;48.130;-2.040;2023-09-12T11:47:53;1.88;;;1.65;;
61397;SDS011;47267;48.130;-2.040;2023-09-12T11:50:28;2.30;;;1.80;;
61397;SDS011;47267;48.130;-2.040;2023-09-12T11:53:20;1.92;;;1.60;;
61397;SDS011;47267;48.130;-2.040;2023-09-12T11:55:46;3.22;;;1.67;;
61397;SDS011;47267;48.130;-2.040;2023-09-12T11:58:14;3.30;;;1.58;;
61397;SDS011;47267;48.130;-2.040;2023-09-12T12:00:44;2.50;;;1.70;;
61397;SDS011;47267;48.130;-2.040;2023-09-12T12:03:14;3.95;;;1.90;;
61397;SDS011;47267;48.130;-2.040;2023-09-12T12:05:40;2.75;;;1.40;;
61397;SDS011;47267;48.130;-2.040;2023-09-12T12:08:07;3.88;;;1.48;;
61397;SDS011;47267;48.130;-2.040;2023-09-12T12:10:34;1.98;;;1.42;;
61397;SDS011;47267;48.130;-2.040;2023-09-12T12:13:00;2.90;;;1.10;;
61397;SDS011;47267;48.130;-2.040;2023-09-12T12:15:28;3.15;;;1.50;;
61397;SDS011;47267;48.130;-2.040;2023-09-12T12:17:54;3.40;;;1.27;;
61397;SDS011;47267;48.130;-2.040;2023-09-12T12:20:21;2.17;;;1.17;;
61397;SDS011;47267;48.130;-2.040;2023-09-12T12:22:46;1.40;;;0.80;;
61397;SDS011;47267;48.130;-2.040;2023-09-12T12:25:13;1.98;;;1.20;;
61397;SDS011;47267;48.130;-2.040;2023-09-12T12:27:40;1.92;;;1.10;;
61397;SDS011;47267;48.130;-2.040;2023-09-12T12:30:07;2.15;;;1.15;;
61397;SDS011;47267;48.130;-2.040;2023-09-12T12:32:44;2.35;;;0.95;;
61397;SDS011;47267;48.130;-2.040;2023-09-12T12:35:20;1.85;;;1.00;;
61397;SDS011;47267;48.130;-2.040;2023-09-12T12:37:51;2.05;;;1.30;;
61397;SDS011;47267;48.130;-2.040;2023-09-12T12:40:24;2.20;;;1.27;;
61397;SDS011;47267;48.130;-2.040;2023-09-12T12:42:50;2.15;;;1.15;;
61397;SDS011;47267;48.130;-2.040;2023-09-12T12:45:16;2.55;;;1.27;;
61397;SDS011;47267;48.130;-2.040;2023-09-12T12:47:46;1.70;;;1.10;;
61397;SDS011;47267;48.130;-2.040;2023-09-12T12:50:22;1.70;;;1.15;;
61397;SDS011;47267;48.130;-2.040;2023-09-12T12:52:48;1.48;;;1.10;;
61397;SDS011;47267;48.130;-2.040;2023-09-12T12:55:14;1.98;;;1.15;;
61397;SDS011;47267;48.130;-2.040;2023-09-12T12:57:42;2.20;;;1.25;;
61397;SDS011;47267;48.130;-2.040;2023-09-12T13:00:10;2.55;;;1.02;;
61397;SDS011;47267;48.130;-2.040;2023-09-12T13:02:37;2.45;;;1.20;;
61397;SDS011;47267;48.130;-2.040;2023-09-12T13:05:03;1.70;;;1.10;;
61397;SDS011;47267;48.130;-2.040;2023-09-12T13:07:34;1.88;;;1.10;;
61397;SDS011;47267;48.130;-2.040;2023-09-12T13:10:01;3.15;;;1.10;;
61397;SDS011;47267;48.130;-2.040;2023-09-12T13:12:28;2.17;;;1.20;;
61397;SDS011;47267;48.130;-2.040;2023-09-12T13:14:53;1.77;;;1.00;;
61397;SDS011;47267;48.130;-2.040;2023-09-12T13:17:19;3.58;;;1.25;;
61397;SDS011;47267;48.130;-2.040;2023-09-12T13:19:45;2.40;;;1.20;;
61397;SDS011;47267;48.130;-2.040;2023-09-12T13:22:10;2.30;;;1.17;;
61397;SDS011;47267;48.130;-2.040;2023-09-12T13:24:36;1.83;;;1.10;;
61397;SDS011;47267;48.130;-2.040;2023-09-12T13:27:02;1.80;;;1.08;;
61397;SDS011;47267;48.130;-2.040;2023-09-12T13:29:27;1.20;;;1.00;;
61397;SDS011;47267;48.130;-2.040;2023-09-12T13:31:53;2.83;;;1.10;;
61397;SDS011;47267;48.130;-2.040;2023-09-12T13:34:19;1.70;;;1.02;;
61397;SDS011;47267;48.130;-2.040;2023-09-12T13:36:44;2.30;;;1.27;;
61397;SDS011;47267;48.130;-2.040;2023-09-12T13:39:10;1.55;;;1.10;;
61397;SDS011;47267;48.130;-2.040;2023-09-12T13:41:37;1.88;;;1.20;;
61397;SDS011;47267;48.130;-2.040;2023-09-12T13:44:05;2.72;;;1.08;;
61397;SDS011;47267;48.130;-2.040;2023-09-12T13:46:31;1.75;;;0.98;;
61397;SDS011;47267;48.130;-2.040;2023-09-12T13:48:56;1.83;;;1.35;;
61397;SDS011;47267;48.130;-2.040;2023-09-12T13:51:25;3.95;;;1.10;;
61397;SDS011;47267;48.130;-2.040;2023-09-12T13:53:51;1.58;;;0.95;;
61397;SDS011;47267;48.130;-2.040;2023-09-12T13:56:17;1.80;;;1.20;;
61397;SDS011;47267;48.130;-2.040;2023-09-12T13:58:43;2.50;;;1.20;;
61397;SDS011;47267;48.130;-2.040;2023-09-12T14:01:08;1.42;;;1.10;;
61397;SDS011;47267;48.130;-2.040;2023-09-12T14:03:34;1.92;;;0.90;;
61397;SDS011;47267;48.130;-2.040;2023-09-12T14:06:00;1.80;;;1.20;;
61397;SDS011;47267;48.130;-2.040;2023-09-12T14:08:25;1.83;;;1.10;;
61397;SDS011;47267;48.130;-2.040;2023-09-12T14:10:51;1.35;;;0.95;;
61397;SDS011;47267;48.130;-2.040;2023-09-12T14:13:17;1.80;;;1.00;;
61397;SDS011;47267;48.130;-2.040;2023-09-12T14:15:42;2.53;;;1.30;;
61397;SDS011;47267;48.130;-2.040;2023-09-12T14:18:08;2.20;;;1.10;;
61397;SDS011;47267;48.130;-2.040;2023-09-12T14:20:34;1.45;;;1.02;;
61397;SDS011;47267;48.130;-2.040;2023-09-12T14:23:00;3.05;;;1.20;;
61397;SDS011;47267;48.130;-2.040;2023-09-12T14:25:26;1.67;;;0.90;;
61397;SDS011;47267;48.130;-2.040;2023-09-12T14:27:52;1.83;;;1.23;;
61397;SDS011;47267;48.130;-2.040;2023-09-12T14:30:17;2.05;;;1.20;;
61397;SDS011;47267;48.130;-2.040;2023-09-12T14:32:45;3.10;;;1.20;;
61397;SDS011;47267;48.130;-2.040;2023-09-12T14:35:11;5.20;;;1.20;;
61397;SDS011;47267;48.130;-2.040;2023-09-12T14:37:36;1.58;;;1.15;;
61397;SDS011;47267;48.130;-2.040;2023-09-12T14:40:03;1.55;;;1.13;;
61397;SDS011;47267;48.130;-2.040;2023-09-12T14:42:30;1.15;;;0.90;;
61397;SDS011;47267;48.130;-2.040;2023-09-12T14:44:56;2.92;;;1.20;;
61397;SDS011;47267;48.130;-2.040;2023-09-12T14:47:22;1.65;;;1.02;;
61397;SDS011;47267;48.130;-2.040;2023-09-12T14:49:48;1.30;;;1.00;;